Tiempo atmosférico en la estación meteorológica de Santander, Cantabria (52 m.)



Fecha
DESCASC
Temp. máxima en grados centígrados (hora)
DESCASC
Temp. mínima en grados centígrados (hora)
DESCASC
Temp. media en grados centígrados
DESCASC
Racha de viento máxima en m/sg (hora)
DESCASC
Velocidad máxima media en intervalos de 10 minutos(hora)
DESCASC
Precipitaciones diarias en mm
DESCASC
Precipitaciones de 00:00 a 06:00 en mm
DESCASC
Precipitaciones de 06:00 a 12:00 en mm
DESCASC
Precipitaciones de 12:00 a 18:00 en mm
DESCASC
Precipitaciones de 18:00 a 24:00 en mm
DESCASC
29-03-2020 13.6 (13:30) 8 (23:59) 10.8 15 (23:40) 11.67 (23:40) 0.2 0 0 0.2 0
28-03-2020 14.7 (15:00) 7.5 (07:20) 11.1 7.22 (00:30) 5.56 (17:10) 0 0 0 0 0
27-03-2020 13.2 (11:00) 6.2 (07:00) 9.7 12.78 (17:40) 10.83 (18:00) 0 0 0 0 0
26-03-2020 12.8 (12:50) 8.4 (00:00) 10.6 12.78 (17:50) 8.89 (17:40) 0 0 0 0 0
25-03-2020 14.6 (12:30) 9 (00:00) 11.8 6.94 (18:50) 4.44 (13:50) 0 0 0 0 0
24-03-2020 16.6 (12:00) 9.7 (00:00) 13.2 12.22 (17:00) 9.72 (16:50) 0 0 0 0 0
23-03-2020 15.3 (12:50) 11.3 (00:00) 13.3 11.39 (18:20) 8.89 (21:00) 0 0 0 0 0
22-03-2020 15.1 (12:40) 11.4 (05:00) 13.3 7.5 (10:10) 5.28 (12:00) 0 0 0 0 0
21-03-2020 17.4 (14:50) 10.8 (00:00) 14.1 8.33 (16:30) 6.39 (16:30) 0 0 0 0 0
20-03-2020 15.6 (12:40) 9.9 (00:00) 12.8 6.94 (18:50) 5.28 (18:30) 0 0 0 0 0
19-03-2020 12.8 (13:40) 11.1 (00:00) 12 4.72 (18:30) 3.33 (16:10) 0 0 0 0 0
18-03-2020 13.7 (14:10) 10.1 (00:00) 11.9 5.56 (00:30) 4.44 (00:20) 0 0 0 0 0
17-03-2020 13.8 (15:20) 9.5 (00:00) 11.7 9.17 (17:40) 7.5 (17:50) 0 0 0 0 0
16-03-2020 11.8 (13:10) 7 (00:00) 9.4 15.28 (07:20) 10.83 (11:30) 12.4 6.8 3.2 2.2 0.2
15-03-2020 14.8 (14:40) 8.1 (00:00) 11.5 15 (19:20) 10.28 (19:20) 7.2 0 0 0 7.2
14-03-2020 13.5 (14:00) 7.3 (00:00) 10.4 8.61 (17:50) 6.67 (18:00) 0 0 0 0 0
13-03-2020 13.8 (13:40) 8.3 (23:00) 11.1 9.44 (12:00) 6.94 (12:00) 0.8 0.8 0 0 0
12-03-2020 14.2 (12:40) 10.6 (00:00) 12.4 10.56 (15:40) 6.94 (15:40) 2.8 0 0 0.4 2.4
11-03-2020 15.7 (13:00) 10.5 (00:00) 13.1 8.33 (12:00) 6.67 (14:30) 0 0 0 0 0
10-03-2020 14.7 (18:20) 9.1 (00:00) 11.9 5.56 (23:50) 4.44 (23:50) 0 0 0 0 0
09-03-2020 13.5 (12:40) 11 (00:00) 12.3 15.28 (01:30) 10.28 (03:00) 0.2 0.2 0 0 0
08-03-2020 17.8 (14:40) 8.2 (00:00) 13 16.39 (22:40) 9.72 (22:50) 1 0 0 0 1
07-03-2020 14.5 (15:00) 9 (00:00) 11.8 14.72 (00:10) 10 (00:10) 1.6 0.2 1.4 0 0
06-03-2020 11.1 (23:30) 7.1 (00:00) 9.1 31.39 (07:20) 18.33 (14:00) 14 6.2 5 2.2 0.6
05-03-2020 19.1 (06:00) 9.6 (00:00) 14.4 25.56 (13:10) 17.22 (13:10) 9.6 0 7.4 1 1.2
04-03-2020 18 (14:10) 10.9 (00:00) 14.4 7.78 (05:00) 5.28 (21:40) 4.2 4.2 0 0 0
03-03-2020 15.5 (11:50) 7.7 (00:00) 11.6 30.56 (14:20) 22.22 (14:20) 5.2 3 1.6 0.6 0
02-03-2020 12.7 (00:00) 6.4 (00:00) 9.5 28.89 (06:50) 18.89 (06:50) 29.4 11.2 6.2 11.6 0.4
01-03-2020 15 (10:30) 10.1 (00:00) 12.6 17.78 (08:10) 12.5 (11:20) 0.4 0 0 0 0.4
29-02-2020 19 (00:20) 10.8 (00:00) 14.9 17.5 (15:00) 11.11 (15:00) 1.2 0 1.2 0 0

Gráficas

Temp. máximas Temp. mínimas Temp. medias Precipitaciones Rachas de viento máximas Velocidades máximas media en intervalos de 10 minutos

Datos horarios

Fecha y hora oficial Temperatura (ºC) Velocidad del viento (km/h) Dirección del viento Racha (km/h) Dirección de racha Precipitación (mm) Presión (hPa) Tendencia (hPa) Humedad (%)
2020-03-29 23:00:00 9.3 29 Nordeste 45 Nordeste 0 1017.7 1 68
2020-03-29 22:00:00 9.1 32 Nordeste 46 Nordeste 0 1017.4 1.1 71
2020-03-29 21:00:00 9.1 35 Nordeste 47 Nordeste 0 1017.1 1.2 75
2020-03-29 20:00:00 9.4 35 Nordeste 45 Nordeste 0 1016.7 0.9 79
2020-03-29 19:00:00 10 33 Nordeste 44 Nordeste 0 1016.3 0.6 80
2020-03-29 18:00:00 10.3 31 Nordeste 42 Nordeste 0 1015.9 0.2 81
2020-03-29 17:00:00 10.5 28 Nordeste 37 Nordeste 0 1015.8 0 86
2020-03-29 16:00:00 10.6 27 Nordeste 35 Nordeste 0.2 1015.7 -0.5 90
2020-03-29 15:00:00 12.1 12 Noroeste 17 Norte 0 1015.7 -0.4 77
2020-03-29 14:00:00 13.5 9 Noroeste 17 Noroeste 0 1015.8 -0.2 75
2020-03-29 13:00:00 12.9 8 Noroeste 13 Noroeste 0 1016.2 0.5 75
2020-03-29 12:00:00 13 9 Noroeste 13 Noroeste 0 1016.1 0.6 74
2020-03-29 11:00:00 12.4 8 Oeste 11 Oeste 0 1016 1 73
2020-03-29 10:00:00 10.8 6 Sudoeste 12 Sudoeste 0 1015.7 1 76
2020-03-29 09:00:00 9 9 Sudoeste 14 Sudoeste 0 1015.5 1 80
2020-03-29 08:00:00 8.4 11 Sudoeste 13 Sudoeste 0 1015 0.5 81
2020-03-29 07:00:00 8.4 10 Sudoeste 12 Sudoeste 0 1014.7 -0.1 82
2020-03-29 06:00:00 8.7 9 Sudoeste 11 Sudoeste 0 1014.5 -0.6 82
2020-03-29 05:00:00 9.1 9 Sudoeste 12 Sudoeste 0 1014.5 -0.8 82
2020-03-29 03:00:00 9.7 4 Sudoeste 5 Sudoeste 0 1015.1 0 82
2020-03-29 01:00:00 10.1 3 Sur 8 Sur 0 1015.3 0.4 81
2020-03-29 00:00:00 10.5 7 Sur 9 Sudeste 0 1015.1 0.5 77
2020-03-28 23:00:00 10.5 8 Sudeste 12 Sudeste 0 1015.1 1.2 78
2020-03-28 22:00:00 10.5 9 Sudeste 18 Este 0 1014.9 1.6 79
2020-03-28 21:00:00 11.7 15 Este 19 Este 0 1014.6 1.7 70
2020-03-28 20:00:00 11.9 15 Este 21 Este 0 1013.9 1.4 74
2020-03-28 19:00:00 12.7 15 Este 23 Este 0 1013.3 0.8 72
2020-03-28 18:00:00 13.6 18 Este 25 Nordeste 0 1012.9 0.2 70
2020-03-28 17:00:00 14 19 Nordeste 25 Nordeste 0 1012.5 -0.4 70
2020-03-28 16:00:00 14.4 18 Nordeste 23 Este 0 1012.5 -0.7 72
2020-03-28 15:00:00 14.4 16 Nordeste 21 Nordeste 0 1012.7 -0.6 72
2020-03-28 14:00:00 14.1 14 Nordeste 20 Nordeste 0 1012.9 -0.3 74
2020-03-28 13:00:00 13.2 11 Nordeste 15 Nordeste 0 1013.2 0.1 73
2020-03-28 12:00:00 12.4 6 Norte 10 Norte 0 1013.3 0.8 70
2020-03-28 11:00:00 11.6 5 Norte 8 Norte 0 1013.2 1.3 74
2020-03-28 10:00:00 11.1 4 Norte 6 Norte 0 1013.1 1.7 68
2020-03-28 09:00:00 10.8 3 Noroeste 14 Sur 0 1012.5 1.5 63
2020-03-28 08:00:00 8.3 12 Sudoeste 14 Sudoeste 0 1011.9 1.2 73
2020-03-28 07:00:00 7.8 9 Sur 12 Sudoeste 0 1011.4 1.1 74
2020-03-28 06:00:00 7.8 6 Sudoeste 12 Sudeste 0 1011 0.6 75
2020-03-28 05:00:00 8.3 12 Sudeste 19 Sudeste 0 1010.7 0.2 71
2020-03-28 04:00:00 9.5 15 Sudeste 19 Este 0 1010.3 -0.2 63
2020-03-28 03:00:00 9.2 11 Sudeste 20 Este 0 1010.4 -0.2 68
2020-03-28 02:00:00 9.2 13 Sudeste 18 Sudeste 0 1010.5 0 70
2020-03-28 01:00:00 9.2 12 Sudeste 26 Sudeste 0 1010.5 0.2 74
2020-03-28 00:00:00 9.5 20 Sudeste 28 Sudeste 0 1010.6 0.6 73
2020-03-27 23:00:00 9.7 19 Sudeste 32 Este 0 1010.5 1.2 72
2020-03-27 22:00:00 10.5 22 Este 34 Este 0 1010.3 1.6 72
2020-03-27 21:00:00 10.6 25 Este 39 Este 0 1010 1.8 69
2020-03-27 20:00:00 10.8 27 Este 46 Este 0 1009.3 1.4 68
2020-03-27 19:00:00 11.2 35 Este 45 Este 0 1008.7 0.7 67
2020-03-27 18:00:00 11.5 39 Este 46 Este 0 1008.2 0 62
2020-03-27 17:00:00 12.6 30 Este 41 Este 0 1007.9 -0.7 67
2020-03-27 16:00:00 12.7 29 Nordeste 43 Nordeste 0 1008 -1 65
2020-03-27 15:00:00 12.5 29 Nordeste 37 Nordeste 0 1008.2 -1.3 62
2020-03-27 14:00:00 12.5 23 Nordeste 32 Nordeste 0 1008.6 -1.1 61
2020-03-27 13:00:00 12.5 21 Nordeste 27 Nordeste 0 1009 -0.5 59
2020-03-27 12:00:00 12.3 14 Nordeste 18 Nordeste 0 1009.5 0.2 58
2020-03-27 11:00:00 13.1 8 Nordeste 12 Este 0 1009.7 0.8 47
2020-03-27 10:00:00 11.5 5 Sur 17 Sudoeste 0 1009.5 1 53
2020-03-27 09:00:00 8.4 12 Sudoeste 20 Sur 0 1009.3 1.1 60
2020-03-27 08:00:00 6.9 14 Sur 20 Sur 0 1008.9 0.9 63
2020-03-27 07:00:00 6.2 16 Sur 21 Sur 0 1008.5 0.7 68
2020-03-27 06:00:00 6.5 15 Sur 19 Sudoeste 0 1008.2 0.2 67
2020-03-27 05:00:00 6.8 14 Sur 21 Sur 0 1008 -0.1 65
2020-03-27 04:00:00 6.9 15 Sur 19 Sur 0 1007.8 -0.4 66
2020-03-27 03:00:00 7.2 12 Sur 15 Sur 0 1008 -0.3 66
2020-03-27 02:00:00 7.6 10 Sur 13 Sur 0 1008.1 -0.2 72
2020-03-27 01:00:00 8.1 6 Sudeste 11 Sudeste 0 1008.2 -0.2 61
2020-03-27 00:00:00 9.2 10 Nordeste 25 Nordeste 0 1008.3 -0.1 55
2020-03-26 23:00:00 9.7 18 Norte 26 Nordeste 0 1008.3 0.3 53
2020-03-26 22:00:00 9.6 13 Nordeste 25 Nordeste 0 1008.4 0.6 63
2020-03-26 21:00:00 9.3 18 Nordeste 34 Norte 0 1008.4 1.2 55
2020-03-26 20:00:00 9.7 22 Norte 33 Norte 0 1008 1.1 55
2020-03-26 19:00:00 9.9 26 Norte 36 Norte 0 1007.8 0.9 52
2020-03-26 18:00:00 10.3 32 Norte 46 Nordeste 0 1007.2 0.1 56
2020-03-26 17:00:00 11 26 Norte 36 Norte 0 1006.9 -0.6 55
2020-03-26 16:00:00 11.4 22 Norte 31 Norte 0 1006.9 -1 56
2020-03-26 15:00:00 12 19 Norte 28 Norte 0 1007.1 -1.2 55
2020-03-26 14:00:00 11.8 23 Norte 36 Norte 0 1007.5 -0.9 60
2020-03-26 13:00:00 12.1 24 Norte 35 Norte 0 1007.9 -0.5 56
2020-03-26 12:00:00 11.8 24 Noroeste 37 Noroeste 0 1008.3 0.2 63
2020-03-26 11:00:00 12.5 25 Noroeste 40 Noroeste 0 1008.4 0.6 55
2020-03-26 10:00:00 12 24 Noroeste 40 Noroeste 0 1008.4 0.8 55
2020-03-26 09:00:00 11.6 30 Noroeste 39 Noroeste 0 1008.1 0.5 55
2020-03-26 08:00:00 11.6 24 Norte 36 Noroeste 0 1007.8 -0.1 61
2020-03-26 07:00:00 10.9 24 Noroeste 40 Noroeste 0 1007.6 -0.8 79
2020-03-26 06:00:00 10.6 22 Oeste 33 Oeste 0 1007.6 -1.1 76
2020-03-26 05:00:00 9.1 15 Oeste 25 Oeste 0 1007.9 -1.5 80
2020-03-26 04:00:00 8.4 14 Oeste 23 Sudoeste 0 1008.4 -1.4 79
2020-03-26 03:00:00 8.7 14 Sudoeste 23 Sudoeste 0 1008.7 -1.3 76
2020-03-26 02:00:00 8.7 12 Sudoeste 21 Sudoeste 0 1009.4 -0.9 74
2020-03-26 01:00:00 8.8 10 Sudoeste 19 Sudoeste 0 1009.8 -0.4 72
2020-03-26 00:00:00 9.1 10 Oeste 14 Oeste 0 1010 -0.2 71
2020-03-25 23:00:00 9.4 7 Oeste 12 Oeste 0 1010.3 0.6 70
2020-03-25 22:00:00 9.5 6 Oeste 11 Norte 0 1010.2 0.9 70
2020-03-25 21:00:00 10.2 10 Norte 19 Norte 0 1010.2 1.1 65
2020-03-25 20:00:00 10.3 14 Norte 23 Norte 0 1009.7 0.6 71
2020-03-25 19:00:00 11.2 14 Norte 25 Norte 0 1009.3 0.2 65
2020-03-25 18:00:00 12.3 14 Noroeste 21 Norte 0 1009.1 -0.3 62
2020-03-25 17:00:00 12.8 12 Norte 21 Norte 0 1009.1 -0.5 64
2020-03-25 16:00:00 13.1 13 Norte 21 Norte 0 1009.1 -0.7 65
2020-03-25 15:00:00 13.3 14 Norte 18 Norte 0 1009.4 -0.5 71
2020-03-25 14:00:00 13.5 15 Norte 19 Norte 0 1009.6 -0.4 75
2020-03-25 13:00:00 14 12 Norte 19 Noroeste 0 1009.8 0.2 84
2020-03-25 12:00:00 14 13 Oeste 21 Oeste 0 1009.9 0.4 88
2020-03-25 11:00:00 12.6 13 Noroeste 23 Noroeste 0 1010 0.5 91
2020-03-25 10:00:00 12.2 14 Oeste 19 Oeste 0 1009.6 0.5 87
2020-03-25 09:00:00 11.4 10 Oeste 15 Oeste 0 1009.5 0.5 83
2020-03-25 08:00:00 10.6 8 Sudoeste 13 Oeste 0 1009.5 0.6 89
2020-03-25 07:00:00 10.2 5 Sudoeste 7 Sudoeste 0 1009.1 0.1 88
2020-03-25 06:00:00 10.9 0 Calma 4 Norte 0 1009 -0.4 89
2020-03-25 05:00:00 11.2 3 Sur 6 Sudoeste 0 1008.9 -0.9 80
2020-03-25 04:00:00 11.2 4 Sudoeste 8 Sudoeste 0 1009 -1 87
2020-03-25 03:00:00 11.4 4 Este 10 Este 0 1009.4 -0.7 92
2020-03-25 02:00:00 11.3 8 Este 13 Este 0 1009.8 -0.8 90
2020-03-25 01:00:00 11.8 9 Este 14 Este 0 1010 -0.7 87
2020-03-25 00:00:00 11.6 13 Sudeste 19 Sudeste 0 1010.1 -0.2 82
2020-03-24 23:00:00 12.2 15 Este 28 Este 0 1010.6 0.6 82
2020-03-24 22:00:00 12.3 22 Este 30 Este 0 1010.7 0.9 89
2020-03-24 21:00:00 12.5 20 Este 30 Este 0 1010.3 0.6 92
2020-03-24 20:00:00 12.6 19 Este 31 Este 0 1010 0.2 91
2020-03-24 19:00:00 13 24 Este 39 Este 0 1009.8 -0.1 92
2020-03-24 18:00:00 13.8 31 Este 41 Este 0 1009.7 -0.7 89
2020-03-24 17:00:00 14.3 32 Este 44 Este 0 1009.8 -0.9 88
2020-03-24 16:00:00 14.8 29 Este 40 Este 0 1009.9 -1.5 88
2020-03-24 15:00:00 15.5 22 Este 36 Nordeste 0 1010.4 -1.6 85
2020-03-24 14:00:00 15.7 23 Este 36 Este 0 1010.7 -1.4 81
2020-03-24 13:00:00 16.2 22 Este 31 Este 0 1011.4 -0.9 73
2020-03-24 12:00:00 16.6 20 Este 28 Este 0 1012 -0.1 70
2020-03-24 11:00:00 16.4 8 Este 15 Sudeste 0 1012.1 0.2 72
2020-03-24 10:00:00 15.3 8 Este 16 Sudeste 0 1012.3 0.8 74
2020-03-24 09:00:00 12.7 12 Este 16 Este 0 1012.1 0.7 83
2020-03-24 08:00:00 10.7 7 Sudeste 13 Sur 0 1011.9 0.5 95
2020-03-24 07:00:00 9.8 11 Sudeste 19 Sudeste 0 1011.5 0.1 95
2020-03-24 06:00:00 10.5 17 Sudeste 21 Sudeste 0 1011.4 -0.3 95
2020-03-24 05:00:00 10 12 Sudeste 13 Sudeste 0 1011.4 -0.4 96
2020-03-24 04:00:00 10.6 7 Sudeste 18 Sudeste 0 1011.4 -0.6 95
2020-03-24 03:00:00 11 14 Sudeste 22 Sudeste 0 1011.7 -0.4 95
2020-03-24 02:00:00 11.3 7 Sudeste 20 Sudeste 0 1011.8 -0.2 94
2020-03-24 01:00:00 12.2 13 Sudeste 28 Este 0 1012 0 95
2020-03-24 00:00:00 12.6 22 Este 33 Este 0 1012.1 0.3 94
2020-03-23 23:00:00 12.6 25 Este 38 Este 0 1012 0.4 92
2020-03-23 22:00:00 12.6 30 Este 39 Este 0 1012 0.7 91
2020-03-23 21:00:00 12.6 32 Este 40 Este 0 1011.8 0.7 91
2020-03-23 20:00:00 12.4 22 Este 37 Este 0 1011.6 0.7 89
2020-03-23 19:00:00 12.7 28 Este 41 Este 0 1011.3 0.5 87
2020-03-23 18:00:00 13.2 26 Este 37 Este 0 1011.1 -0.1 86
2020-03-23 17:00:00 13.7 26 Este 37 Nordeste 0 1010.9 -0.8 84
2020-03-23 16:00:00 14.3 25 Este 33 Este 0 1010.8 -1.6 78
2020-03-23 15:00:00 14.4 24 Este 33 Este 0 1011.2 -1.4 77
2020-03-23 14:00:00 14.5 23 Este 32 Este 0 1011.7 -1 79
2020-03-23 13:00:00 14.6 20 Nordeste 27 Nordeste 0 1012.4 -0.4 77
2020-03-23 12:00:00 14.9 15 Este 21 Este 0 1012.6 0.4 77
2020-03-23 11:00:00 13.4 12 Este 16 Este 0 1012.7 0.9 84
2020-03-23 10:00:00 12.8 8 Este 11 Este 0 1012.8 1.5 87
2020-03-23 09:00:00 11.9 6 Sudeste 8 Este 0 1012.2 1.4 91
2020-03-23 08:00:00 11.4 6 Sudeste 9 Sudeste 0 1011.8 1.3 92
2020-03-23 07:00:00 11.3 5 Sudeste 9 Sudeste 0 1011.3 1 92
2020-03-23 06:00:00 11.3 8 Sudeste 10 Sudeste 0 1010.8 0.3 91
2020-03-23 05:00:00 11.5 6 Este 13 Nordeste 0 1010.5 -0.1 90
2020-03-23 04:00:00 11.7 10 Nordeste 13 Nordeste 0 1010.3 -0.2 89
2020-03-23 03:00:00 11.6 5 Nordeste 9 Norte 0 1010.5 -0.2 89
2020-03-23 02:00:00 11.4 5 Norte 12 Nordeste 0 1010.6 0.1 90
2020-03-23 01:00:00 11.8 9 Nordeste 13 Nordeste 0 1010.5 0.6 90
2020-03-23 00:00:00 11.8 11 Nordeste 20 Nordeste 0 1010.7 1 89
2020-03-22 23:00:00 12.1 14 Nordeste 22 Norte 0 1010.5 1.7 92
2020-03-22 22:00:00 12.2 12 Norte 22 Norte 0 1009.9 1.5 91
2020-03-22 21:00:00 12.5 14 Norte 23 Norte 0 1009.7 1.8 88
2020-03-22 20:00:00 12.7 16 Norte 22 Norte 0 1008.8 1.4 89
2020-03-22 19:00:00 13 13 Norte 23 Norte 0 1008.4 1.1 90
2020-03-22 18:00:00 13.9 11 Oeste 19 Noroeste 0 1007.9 0.7 91
2020-03-22 17:00:00 14.4 13 Oeste 22 Oeste 0 1007.4 -0.1 88
2020-03-22 16:00:00 14.9 15 Noroeste 22 Noroeste 0 1007.3 -0.3 86
2020-03-22 15:00:00 14.8 16 Noroeste 26 Noroeste 0 1007.2 -0.4 84
2020-03-22 14:00:00 14.8 18 Oeste 26 Oeste 0 1007.5 -0.2 82
2020-03-22 13:00:00 14.9 18 Oeste 26 Oeste 0 1007.6 0.3 78
2020-03-22 12:00:00 14.6 19 Oeste 26 Oeste 0 1007.6 0.8 80
2020-03-22 11:00:00 13.5 17 Oeste 27 Oeste 0 1007.7 1.3 85
2020-03-22 10:00:00 12.6 12 Oeste 19 Oeste 0 1007.3 1.4 89
2020-03-22 09:00:00 12.1 12 Sudoeste 19 Sudoeste 0 1006.8 1.3 86
2020-03-22 08:00:00 11.7 10 Sudoeste 17 Sudoeste 0 1006.4 1.3 86
2020-03-22 07:00:00 11.5 10 Sudoeste 19 Oeste 0 1005.9 0.8 87
2020-03-22 06:00:00 11.5 8 Sudoeste 18 Sudoeste 0 1005.5 0.4 89
2020-03-22 05:00:00 11.4 9 Sudoeste 15 Sudoeste 0 1005.1 0 90
2020-03-22 04:00:00 11.6 10 Oeste 14 Sudoeste 0 1005.1 0 91
2020-03-22 03:00:00 11.6 10 Sudoeste 17 Sudoeste 0 1005.1 0 91
2020-03-22 02:00:00 11.6 11 Oeste 19 Oeste 0 1005.1 0.4 93
2020-03-22 01:00:00 11.6 13 Oeste 19 Oeste 0 1005.1 0.6 94
2020-03-22 00:00:00 11.5 11 Oeste 18 Sudoeste 0 1005.1 0.9 95
2020-03-21 23:00:00 11.5 12 Sudoeste 23 Oeste 0 1004.7 1.1 95
2020-03-21 22:00:00 11.7 15 Oeste 29 Oeste 0 1004.5 1.6 95
2020-03-21 21:00:00 11.8 21 Oeste 29 Oeste 0 1004.2 1.8 95
2020-03-21 20:00:00 12 22 Oeste 30 Oeste 0 1003.6 1.7 94
2020-03-21 19:00:00 12.9 17 Oeste 25 Oeste 0 1002.9 0.9 91
2020-03-21 18:00:00 14.7 12 Este 29 Este 0 1002.4 0.1 76
2020-03-21 17:00:00 15.1 22 Este 30 Este 0 1001.9 -0.8 74
2020-03-21 16:00:00 16 18 Este 26 Este 0 1002 -1.2 69
2020-03-21 15:00:00 17 10 Nordeste 20 Nordeste 0 1002.3 -1.5 69
2020-03-21 14:00:00 16 8 Nordeste 15 Nordeste 0 1002.7 -1.2 78
2020-03-21 13:00:00 16 9 Nordeste 14 Este 0 1003.2 -0.6 85
2020-03-21 12:00:00 15.7 10 Este 16 Este 0 1003.8 -0.1 86
2020-03-21 11:00:00 15.6 9 Este 16 Este 0 1003.9 -0.2 77
2020-03-21 10:00:00 14.8 4 Este 12 Sudeste 0 1003.8 -0.4 90
2020-03-21 09:00:00 11.8 8 Sur 20 Sur 0 1003.9 -0.1 98
2020-03-21 08:00:00 11 8 Sudeste 18 Sudoeste 0 1004.1 0 98
2020-03-21 07:00:00 10.9 8 Oeste 17 Oeste 0 1004.2 0 98
2020-03-21 06:00:00 11.2 13 Oeste 15 Oeste 0 1004 -0.6 98
2020-03-21 05:00:00 11.4 10 Oeste 17 Oeste 0 1004.1 -0.8 97
2020-03-21 04:00:00 11.7 14 Oeste 17 Oeste 0 1004.2 -0.9 95
2020-03-21 03:00:00 11.7 6 Sudeste 10 Sudeste 0 1004.6 -1.2 94
2020-03-21 02:00:00 11.5 10 Sudeste 15 Sur 0 1004.9 -1.1 95
2020-03-21 01:00:00 11.5 12 Sudeste 14 Sudeste 0 1005.1 -0.8 96
2020-03-21 00:00:00 11.3 5 Sudeste 10 Sudeste 0 1005.8 -0.1 96
2020-03-20 23:00:00 11.4 4 Sudeste 6 Este 0 1006 0.3 96
2020-03-20 22:00:00 11.5 3 Sur 12 Sudoeste 0 1005.9 0.1 95
2020-03-20 21:00:00 11.6 9 Sudoeste 15 Oeste 0 1005.9 0.1 95
2020-03-20 20:00:00 11.7 11 Oeste 24 Oeste 0 1005.7 -0.2 95
2020-03-20 19:00:00 12.1 19 Oeste 25 Oeste 0 1005.8 -0.2 95
2020-03-20 18:00:00 12.8 18 Oeste 23 Oeste 0 1005.8 -0.7 93
2020-03-20 17:00:00 13.4 11 Oeste 16 Oeste 0 1005.9 -1 92
2020-03-20 16:00:00 13.8 10 Oeste 16 Oeste 0 1006 -1.2 91
2020-03-20 15:00:00 14.5 12 Oeste 17 Oeste 0 1006.5 -0.9 85
2020-03-20 14:00:00 14.6 6 Oeste 12 Oeste 0 1006.9 -0.7 85
2020-03-20 13:00:00 14.7 10 Oeste 19 Oeste 0 1007.2 -0.4 84
2020-03-20 12:00:00 14.4 9 Este 14 Este 0 1007.4 -0.3 82
2020-03-20 11:00:00 14.3 8 Nordeste 13 Este 0 1007.6 0.2 86
2020-03-20 10:00:00 12.8 8 Sudeste 15 Este 0 1007.6 0.3 97
2020-03-20 09:00:00 11.6 5 Este 13 Sudeste 0 1007.7 0.2 100
2020-03-20 08:00:00 10.2 6 Sudeste 16 Sudeste 0 1007.4 -0.1 99
2020-03-20 07:00:00 9.9 10 Sudeste 17 Sudeste 0 1007.3 -0.3 98
2020-03-20 06:00:00 10.3 7 Sudeste 9 Sudeste 0 1007.5 -0.7 97
2020-03-20 05:00:00 10.8 4 Este 9 Sudeste 0 1007.5 -0.9 97
2020-03-20 04:00:00 11.1 5 Sudeste 7 Sudeste 0 1007.6 -1 97
2020-03-20 03:00:00 11.7 5 Nordeste 8 Este 0 1008.2 -0.7 97
2020-03-20 02:00:00 11.7 5 Nordeste 8 Nordeste 0 1008.4 -0.8 97
2020-03-20 01:00:00 11.8 4 Nordeste 9 Norte 0 1008.6 -0.8 97
2020-03-20 00:00:00 12 4 Este 6 Este 0 1008.9 -0.6 96
2020-03-19 23:00:00 12.1 0 Calma 8 Norte 0 1009.2 -0.3 97
2020-03-19 22:00:00 12.2 4 Nordeste 8 Nordeste 0 1009.4 -0.2 96
2020-03-19 21:00:00 12.2 5 Norte 10 Nordeste 0 1009.5 0 96
2020-03-19 20:00:00 12.3 6 Nordeste 11 Nordeste 0 1009.5 -0.3 95
2020-03-19 19:00:00 12.3 10 Nordeste 17 Nordeste 0 1009.6 -0.7 94
2020-03-19 18:00:00 12.5 11 Nordeste 16 Este 0 1009.5 -1.1 94
2020-03-19 17:00:00 12.6 12 Nordeste 15 Nordeste 0 1009.8 -1.6 93
2020-03-19 16:00:00 12.6 11 Nordeste 15 Nordeste 0 1010.3 -1.7 94
2020-03-19 15:00:00 12.5 10 Norte 12 Nordeste 0 1010.6 -2.1 92
2020-03-19 14:00:00 12.5 8 Norte 12 Norte 0 1011.4 -1.9 94
2020-03-19 13:00:00 12.6 7 Este 12 Nordeste 0 1012 -1.4 95
2020-03-19 12:00:00 12.2 7 Este 12 Este 0 1012.7 -0.6 97
2020-03-19 11:00:00 12 7 Este 12 Este 0 1013.3 -0.1 98
2020-03-19 10:00:00 11.6 6 Norte 10 Noroeste 0 1013.4 -0.2 99
2020-03-19 09:00:00 11.4 5 Oeste 10 Oeste 0 1013.3 -0.4 99
2020-03-19 08:00:00 11.2 8 Oeste 12 Oeste 0 1013.4 -0.5 99
2020-03-19 07:00:00 11.4 6 Oeste 10 Oeste 0 1013.6 -0.4 98
2020-03-19 06:00:00 11.5 5 Oeste 11 Oeste 0 1013.7 -1 98
2020-03-19 05:00:00 11.4 7 Noroeste 11 Noroeste 0 1013.9 -1.4 98
2020-03-19 04:00:00 11.5 5 Noroeste 8 Noroeste 0 1014 -1.5 97
2020-03-19 03:00:00 11.5 3 Oeste 6 Norte 0 1014.7 -1.1 97
2020-03-19 02:00:00 11.4 4 Sudoeste 8 Sudoeste 0 1015.3 -0.9 97
2020-03-19 01:00:00 11.6 4 Este 10 Nordeste 0 1015.5 -1.2 97
2020-03-19 00:00:00 11.8 6 Nordeste 10 Nordeste 0 1015.8 -1.1 96
2020-03-18 23:00:00 11.9 6 Este 8 Este 0 1016.2 -1 95
2020-03-18 22:00:00 12 0 Calma 8 Norte 0 1016.7 -0.4 94
2020-03-18 21:00:00 12 4 Norte 8 Norte 0 1016.9 0 94
2020-03-18 20:00:00 12 2 Noroeste 6 Norte 0 1017.2 0.3 93
2020-03-18 19:00:00 12.2 3 Norte 9 Norte 0 1017.1 -0.2 93
2020-03-18 18:00:00 12.6 6 Norte 10 Noroeste 0 1016.9 -0.8 91
2020-03-18 17:00:00 12.9 4 Norte 9 Norte 0 1016.9 -1.3 89
2020-03-18 16:00:00 13 6 Norte 10 Nordeste 0 1017.3 -1.8 88
2020-03-18 15:00:00 13 8 Nordeste 14 Este 0 1017.7 -2 89
2020-03-18 14:00:00 13.4 8 Nordeste 11 Nordeste 0 1018.2 -1.9 89
2020-03-18 13:00:00 12.7 6 Norte 10 Norte 0 1019.1 -1.2 90
2020-03-18 12:00:00 12.4 7 Noroeste 18 Oeste 0 1019.7 -0.3 90
2020-03-18 11:00:00 12.1 7 Oeste 12 Oeste 0 1020.1 0.4 93
2020-03-18 10:00:00 11.5 4 Oeste 9 Oeste 0 1020.3 0.5 94
2020-03-18 09:00:00 10.7 4 Sudoeste 14 Sudoeste 0 1020 0.2 95
2020-03-18 08:00:00 10.4 9 Sudoeste 15 Sudoeste 0 1019.7 0 95
2020-03-18 07:00:00 10.4 10 Sudoeste 15 Sudoeste 0 1019.8 0 95
2020-03-18 06:00:00 10.3 8 Sudoeste 15 Sudoeste 0 1019.8 -0.3 95
2020-03-18 05:00:00 10.7 8 Sudoeste 14 Sudoeste 0 1019.7 -0.7 95
2020-03-18 04:00:00 10.6 11 Oeste 13 Oeste 0 1019.8 -0.8 95
2020-03-18 03:00:00 10.2 6 Sudoeste 10 Oeste 0 1020.1 -1.1 95
2020-03-18 02:00:00 10.5 3 Sudeste 17 Sur 0 1020.4 -1.5 95
2020-03-18 01:00:00 10.8 11 Sudeste 20 Este 0 1020.6 -1.5 95
2020-03-18 00:00:00 11.3 13 Sudeste 20 Sudeste 0 1021.2 -0.9 94
2020-03-17 23:00:00 11.3 10 Este 22 Sudeste 0 1021.9 0.1 94
2020-03-17 22:00:00 11.7 14 Este 27 Este 0 1022.1 0.4 94
2020-03-17 21:00:00 11.7 21 Este 26 Este 0 1022.1 0.5 92
2020-03-17 20:00:00 11.7 18 Este 25 Este 0 1021.8 -0.1 91
2020-03-17 19:00:00 12.2 18 Este 31 Este 0 1021.7 -0.1 89
2020-03-17 18:00:00 12.4 25 Este 33 Este 0 1021.6 -0.8 90
2020-03-17 17:00:00 12.9 21 Nordeste 31 Este 0 1021.9 -1 87
2020-03-17 16:00:00 13.4 19 Este 27 Este 0 1021.8 -1.6 84
2020-03-17 15:00:00 13.3 10 Nordeste 14 Nordeste 0 1022.4 -0.9 85
2020-03-17 14:00:00 12.5 10 Nordeste 13 Nordeste 0 1022.9 -0.3 86
2020-03-17 13:00:00 11.7 5 Norte 6 Norte 0 1023.4 0.5 89
2020-03-17 12:00:00 11.3 4 Norte 11 Sudoeste 0 1023.3 0.6 89
2020-03-17 11:00:00 10.6 8 Sudoeste 12 Sudoeste 0 1023.2 0.9 91
2020-03-17 10:00:00 10 6 Sudoeste 13 Oeste 0 1022.9 1.1 93
2020-03-17 09:00:00 9.7 10 Sudoeste 17 Sudoeste 0 1022.7 1.6 92
2020-03-17 08:00:00 9.5 11 Sudoeste 17 Sudoeste 0 1022.3 1.8 91
2020-03-17 07:00:00 9.8 10 Sudoeste 17 Sudoeste 0 1021.8 1.4 89
2020-03-17 06:00:00 11.5 8 Nordeste 15 Nordeste 0 1021.1 0.5 84
2020-03-17 05:00:00 11.5 10 Norte 18 Norte 0 1020.5 -0.3 85
2020-03-17 04:00:00 11.5 15 Norte 23 Nordeste 0 1020.4 0 84
2020-03-17 03:00:00 11.6 14 Norte 20 Norte 0 1020.6 0.1 80
2020-03-17 02:00:00 11.5 16 Norte 28 Norte 0 1020.8 0.2 77
2020-03-17 01:00:00 11.4 21 Norte 30 Norte 0 1020.4 0.6 78
2020-03-17 00:00:00 11.3 19 Norte 28 Norte 0 1020.5 1.4 81
2020-03-16 23:00:00 11.3 18 Norte 28 Norte 0 1020.6 2.4 80
2020-03-16 22:00:00 11.3 20 Norte 33 Norte 0 1019.8 2.8 79
2020-03-16 21:00:00 11.2 28 Norte 37 Norte 0 1019.1 2.8 79
2020-03-16 20:00:00 11.2 32 Norte 41 Norte 0 1018.2 1.8 82
2020-03-16 19:00:00 11.2 31 Norte 43 Norte 0.2 1017 1.1 81
2020-03-16 18:00:00 11.1 35 Norte 42 Norte 0.4 1016.3 0.9 83
2020-03-16 17:00:00 10 30 Norte 40 Norte 1.2 1016.4 1.3 92
2020-03-16 16:00:00 9.6 27 Norte 39 Norte 0.6 1015.9 1.2 95
2020-03-16 15:00:00 10.3 34 Norte 46 Norte 0 1015.4 1.3 88
2020-03-16 14:00:00 11.8 28 Norte 40 Norte 0 1015.1 1.5 74
2020-03-16 13:00:00 11.6 30 Norte 43 Norte 0 1014.7 1.5 70
2020-03-16 12:00:00 11.4 35 Norte 48 Norte 0 1014.1 2 70
2020-03-16 11:00:00 11.2 33 Norte 49 Norte 0 1013.6 2.5 74
2020-03-16 10:00:00 10.4 30 Norte 48 Norte 0.6 1013.2 2.9 75
2020-03-16 09:00:00 10.5 33 Norte 51 Norte 0 1012.1 2 71
2020-03-16 08:00:00 10.1 24 Norte 55 Norte 0.2 1011.1 1.5 78
2020-03-16 07:00:00 8.9 23 Noroeste 42 Noroeste 2.4 1010.3 1.4 86
2020-03-16 06:00:00 7.8 22 Oeste 46 Oeste 3.6 1010.1 0.8 94
2020-03-16 05:00:00 7.1 16 Oeste 41 Oeste 1.4 1009.6 0.6 93
2020-03-16 04:00:00 7.3 28 Oeste 50 Oeste 0.2 1008.9 0 90
2020-03-16 03:00:00 8 32 Oeste 47 Oeste 0.8 1009.3 0 90
2020-03-16 02:00:00 7.2 21 Oeste 38 Oeste 0.8 1009 -0.3 92
2020-03-16 01:00:00 8.3 24 Oeste 41 Oeste 0 1008.9 0.1 89
2020-03-16 00:00:00 8.3 31 Oeste 45 Oeste 0.4 1009.3 0.9 89
2020-03-15 23:00:00 8.3 23 Noroeste 50 Noroeste 1.2 1009.3 1.4 90
2020-03-15 22:00:00 8.8 24 Noroeste 38 Noroeste 0.4 1008.8 1.9 90
2020-03-15 21:00:00 9 27 Noroeste 46 Noroeste 0.4 1008.4 2.8 89
2020-03-15 20:00:00 9.2 37 Noroeste 54 Noroeste 1 1007.9 2.3 93
2020-03-15 19:00:00 9.8 33 Noroeste 52 Noroeste 3.8 1006.9 1.1 95
2020-03-15 18:00:00 12.8 12 Noroeste 22 Noroeste 0 1005.6 0 74
2020-03-15 17:00:00 13.5 10 Noroeste 17 Noroeste 0 1005.6 -0.7 67
2020-03-15 16:00:00 13.9 8 Oeste 16 Oeste 0 1005.8 -1 71
2020-03-15 15:00:00 14.2 9 Noroeste 18 Noroeste 0 1005.6 -1.2 70
2020-03-15 14:00:00 14.3 12 Oeste 24 Noroeste 0 1006.3 -0.8 73
2020-03-15 13:00:00 12.8 18 Noroeste 30 Oeste 0 1006.8 -0.2 83
2020-03-15 12:00:00 12.9 20 Oeste 35 Oeste 0 1006.8 0.4 86
2020-03-15 11:00:00 11.9 25 Oeste 40 Oeste 0 1007.1 1.2 89
2020-03-15 10:00:00 11.8 27 Oeste 40 Oeste 0 1007 1.4 90
2020-03-15 09:00:00 10.5 26 Oeste 34 Oeste 0 1006.4 0.8 93
2020-03-15 08:00:00 8.8 15 Oeste 22 Oeste 0 1005.9 -0.2 90
2020-03-15 07:00:00 8.6 8 Oeste 9 Oeste 0 1005.6 -1.7 89
2020-03-15 06:00:00 8.4 6 Oeste 8 Oeste 0 1005.6 -3 88
2020-03-15 05:00:00 8.1 4 Sur 8 Sudoeste 0 1006.1 -3.5 89
2020-03-15 04:00:00 8.5 5 Sudoeste 8 Sur 0 1007.3 -3.1 88
2020-03-15 03:00:00 8.7 7 Sur 9 Sur 0 1008.6 -2.8 88
2020-03-15 02:00:00 8.8 5 Sudeste 11 Sudeste 0 1009.6 -2.7 88
2020-03-15 01:00:00 8.7 9 Sudeste 14 Sudeste 0 1010.4 -2.8 87
2020-03-15 00:00:00 8.5 10 Sudeste 15 Sudeste 0 1011.4 -2.3 88
2020-03-14 23:00:00 9.1 12 Sudeste 18 Sudeste 0 1012.3 -1.7 88
2020-03-14 22:00:00 9.5 14 Sudeste 19 Sudeste 0 1013.2 -0.9 85
2020-03-14 21:00:00 10.5 14 Este 22 Este 0 1013.7 -0.8 83
2020-03-14 20:00:00 10.9 17 Este 25 Este 0 1014 -0.8 80
2020-03-14 19:00:00 11.7 20 Este 30 Este 0 1014.1 -1.3 75
2020-03-14 18:00:00 12.3 24 Este 31 Este 0 1014.5 -1.4 74
2020-03-14 17:00:00 13.1 18 Este 24 Este 0 1014.8 -2 77
2020-03-14 16:00:00 13.4 14 Nordeste 18 Nordeste 0 1015.4 -2 75
2020-03-14 15:00:00 13.2 11 Norte 15 Norte 0 1015.9 -1.9 74
2020-03-14 14:00:00 13.4 8 Norte 14 Norte 0 1016.8 -1.3 73
2020-03-14 13:00:00 13.1 8 Norte 12 Noroeste 0 1017.4 -0.6 76
2020-03-14 12:00:00 12.9 6 Norte 12 Noroeste 0 1017.8 0.4 76
2020-03-14 11:00:00 12.4 9 Oeste 15 Oeste 0 1018.1 1 80
2020-03-14 10:00:00 12.3 7 Oeste 14 Sudoeste 0 1018 1.1 77
2020-03-14 09:00:00 10.9 8 Sudoeste 15 Sudoeste 0 1017.4 0.9 80
2020-03-14 08:00:00 9.3 9 Sudoeste 14 Sudoeste 0 1017.1 1 82
2020-03-14 07:00:00 9 8 Sudoeste 14 Sudoeste 0 1016.9 0.4 80
2020-03-14 06:00:00 8.8 10 Sudoeste 15 Sudoeste 0 1016.5 -0.5 80
2020-03-14 05:00:00 8.4 13 Sudoeste 19 Sur 0 1016.1 -1.2 81
2020-03-14 04:00:00 7.9 12 Sur 16 Sur 0 1016.5 -1 83
2020-03-14 03:00:00 7.4 10 Sur 14 Sur 0 1017 -0.6 86
2020-03-14 02:00:00 7.9 11 Sur 13 Sur 0 1017.3 -0.2 84
2020-03-14 01:00:00 8.5 7 Sur 9 Sur 0 1017.5 0.3 80
2020-03-14 00:00:00 8.8 5 Sudoeste 17 Sur 0 1017.6 0.5 79
2020-03-13 23:00:00 8.3 13 Sudeste 15 Sudeste 0 1017.5 1 79
2020-03-13 22:00:00 8.6 13 Sudeste 19 Sudeste 0 1017.2 1.2 80
2020-03-13 21:00:00 9.9 13 Este 22 Este 0 1017.1 0.4 76
2020-03-13 20:00:00 9.8 12 Este 25 Sudeste 0 1016.5 -0.3 75
2020-03-13 19:00:00 10.8 15 Este 26 Este 0 1016 -1.2 72
2020-03-13 18:00:00 11.8 21 Este 28 Este 0 1016.7 -0.9 70
2020-03-13 17:00:00 12.4 20 Este 27 Este 0 1016.8 -1.2 67
2020-03-13 16:00:00 12.8 20 Este 27 Nordeste 0 1017.2 -1.2 67
2020-03-13 15:00:00 13.2 15 Este 27 Este 0 1017.6 -0.9 67
2020-03-13 14:00:00 13.6 20 Este 30 Este 0 1018 -0.7 65
2020-03-13 13:00:00 13.4 23 Este 31 Este 0 1018.4 -0.3 65
2020-03-13 12:00:00 12.8 25 Este 34 Este 0 1018.5 0 66
2020-03-13 11:00:00 12.6 23 Este 32 Este 0 1018.7 0.3 66
2020-03-13 10:00:00 11.6 23 Este 31 Este 0 1018.7 0.3 70
2020-03-13 09:00:00 11.1 22 Este 30 Este 0 1018.5 0 74
2020-03-13 08:00:00 10.7 22 Este 30 Nordeste 0 1018.4 -0.1 78
2020-03-13 07:00:00 10.5 21 Este 28 Este 0 1018.4 -0.1 78
2020-03-13 06:00:00 10.6 21 Nordeste 31 Nordeste 0 1018.5 -0.3 80
2020-03-13 05:00:00 10.1 11 Este 18 Este 0.8 1018.5 -0.6 93
2020-03-13 04:00:00 10.2 9 Este 21 Nordeste 0 1018.5 -0.7 91
2020-03-13 03:00:00 10.5 12 Este 25 Nordeste 0 1018.8 -0.4 89
2020-03-13 02:00:00 10.8 16 Nordeste 26 Nordeste 0 1019.1 0.2 84
2020-03-13 01:00:00 11.1 15 Nordeste 27 Nordeste 0 1019.2 0.4 81
2020-03-13 00:00:00 11.2 18 Nordeste 28 Nordeste 0 1019.2 0.5 84
2020-03-12 23:00:00 11.3 20 Nordeste 25 Nordeste 0 1018.9 0.7 91
2020-03-12 22:00:00 10.6 5 Nordeste 19 Norte 0.6 1018.8 1 98
2020-03-12 21:00:00 10.8 14 Norte 22 Norte 0.8 1018.7 1.4 97
2020-03-12 20:00:00 10.9 6 Oeste 10 Oeste 0.4 1018.2 1.4 96
2020-03-12 19:00:00 11.2 5 Norte 17 Noroeste 0.6 1017.8 1.2 95
2020-03-12 18:00:00 11.8 13 Norte 27 Norte 0.2 1017.3 0.6 89
2020-03-12 17:00:00 11.5 7 Oeste 20 Norte 0.2 1016.8 -0.1 98
2020-03-12 16:00:00 11.3 15 Norte 38 Norte 0 1016.6 -0.6 96
2020-03-12 15:00:00 12.9 12 Noroeste 18 Noroeste 0 1016.7 -0.7 94
2020-03-12 14:00:00 13.5 11 Oeste 15 Noroeste 0 1016.9 -0.5 93
2020-03-12 13:00:00 13.9 9 Noroeste 16 Noroeste 0 1017.2 -0.1 88
2020-03-12 12:00:00 13.8 11 Sudeste 14 Sur 0 1017.4 0.6 85
2020-03-12 11:00:00 13.2 10 Sudeste 13 Sudeste 0 1017.4 1 92
2020-03-12 10:00:00 12.6 6 Noroeste 12 Noroeste 0 1017.3 1.3 92
2020-03-12 09:00:00 12.6 8 Oeste 10 Oeste 0 1016.8 1 92
2020-03-12 08:00:00 12.4 7 Oeste 15 Sur 0 1016.4 0.5 91
2020-03-12 07:00:00 12.6 13 Sur 18 Sudoeste 0 1016 0 88
2020-03-12 06:00:00 12.4 15 Sur 20 Sur 0 1015.8 -0.6 90
2020-03-12 05:00:00 12.1 10 Sur 16 Sur 0 1015.9 -0.5 93
2020-03-12 04:00:00 11.9 7 Sudoeste 10 Sudoeste 0 1016 -0.6 95
2020-03-12 03:00:00 12 5 Sudoeste 11 Sur 0 1016.4 -0.4 96
2020-03-12 02:00:00 11.9 4 Sudoeste 8 Sudoeste 0 1016.4 -0.2 96
2020-03-12 01:00:00 12 5 Sudoeste 8 Sur 0 1016.6 0.5 96
2020-03-12 00:00:00 11.9 0 Calma 12 Norte 0 1016.8 0.7 96
2020-03-11 23:00:00 12.1 9 Norte 13 Norte 0 1016.6 0.7 96
2020-03-11 22:00:00 12 9 Nordeste 12 Nordeste 0 1016.1 0.5 95
2020-03-11 21:00:00 12 8 Nordeste 12 Este 0 1016.1 0.8 94
2020-03-11 20:00:00 12.1 8 Este 12 Este 0 1015.9 1 92
2020-03-11 19:00:00 12.7 9 Este 17 Este 0 1015.6 0.7 88
2020-03-11 18:00:00 13.7 13 Este 20 Este 0 1015.3 0 84
2020-03-11 17:00:00 14.5 14 Este 19 Este 0 1014.9 -1.2 81
2020-03-11 16:00:00 14.9 17 Este 24 Este 0 1014.9 -1.8 80
2020-03-11 15:00:00 15.2 21 Este 30 Este 0 1015.3 -2 78
2020-03-11 14:00:00 15.5 16 Este 28 Este 0 1016.1 -1.5 76
2020-03-11 13:00:00 15.6 21 Este 29 Este 0 1016.7 -1.2 75
2020-03-11 12:00:00 14.9 24 Este 30 Este 0 1017.3 -0.6 77
2020-03-11 11:00:00 14.9 12 Este 18 Sudeste 0 1017.6 -0.5 75
2020-03-11 10:00:00 14.4 15 Sudeste 21 Sudeste 0 1017.9 -0.2 75
2020-03-11 09:00:00 12.8 15 Sudeste 18 Sudeste 0 1017.9 0 82
2020-03-11 08:00:00 10.6 14 Sudeste 17 Sudeste 0 1018.1 0 87
2020-03-11 07:00:00 10.5 14 Sudeste 18 Sudeste 0 1018.1 -0.2 86
2020-03-11 06:00:00 10.6 17 Sur 19 Sur 0 1017.9 -0.8 86
2020-03-11 05:00:00 10.7 14 Sudeste 17 Sur 0 1018.1 -1 85
2020-03-11 04:00:00 10.7 12 Sur 14 Sur 0 1018.3 -1.2 86
2020-03-11 03:00:00 11 10 Sudeste 14 Sur 0 1018.7 -1.3 85
2020-03-11 02:00:00 10.8 13 Sur 15 Sur 0 1019.1 -1.4 86
2020-03-11 01:00:00 11.3 13 Sur 20 Sur 0 1019.5 -0.8 85
2020-03-11 00:00:00 11.2 15 Sur 20 Sur 0 1020 0.2 87
2020-03-10 23:00:00 11.5 10 Sur 11 Sur 0 1020.5 0.8 85
2020-03-10 22:00:00 11.5 5 Sudeste 7 Sudeste 0 1020.3 0.9 82
2020-03-10 21:00:00 11.6 4 Este 5 Este 0 1019.8 0.5 78
2020-03-10 20:00:00 11.9 3 Nordeste 6 Nordeste 0 1019.7 0.3 85
2020-03-10 19:00:00 12.8 4 Nordeste 7 Sudoeste 0 1019.4 -0.2 79
2020-03-10 18:00:00 14.6 3 Sudoeste 6 Noroeste 0 1019.3 -0.1 70
2020-03-10 17:00:00 13.9 4 Norte 10 Noroeste 0 1019.4 -0.2 75
2020-03-10 16:00:00 13.6 8 Noroeste 14 Noroeste 0 1019.6 -0.7 76
2020-03-10 15:00:00 14.2 9 Noroeste 16 Noroeste 0 1019.4 -0.9 77
2020-03-10 14:00:00 14.1 10 Noroeste 15 Oeste 0 1019.6 -0.5 76
2020-03-10 13:00:00 13.7 10 Noroeste 15 Oeste 0 1020.3 0.7 78
2020-03-10 12:00:00 13.9 6 Noroeste 12 Sudoeste 0 1020.3 1.2 75
2020-03-10 11:00:00 14 6 Sudoeste 10 Sudoeste 0 1020.1 1.2 72
2020-03-10 10:00:00 12.9 5 Sur 11 Sur 0 1019.6 0.8 78
2020-03-10 09:00:00 10.2 10 Sur 15 Sur 0 1019.1 0.2 83
2020-03-10 08:00:00 9.1 12 Sur 14 Sur 0 1018.9 -0.1 84
2020-03-10 07:00:00 9.5 8 Sudoeste 13 Sudoeste 0 1018.8 -0.4 85
2020-03-10 06:00:00 10.1 8 Sudoeste 12 Sudoeste 0 1018.9 -0.8 80
2020-03-10 05:00:00 10.3 8 Sudoeste 14 Oeste 0 1019 -1.2 80
2020-03-10 04:00:00 10.5 10 Sudoeste 14 Sudoeste 0 1019.2 -1.2 80
2020-03-10 03:00:00 10.5 11 Sudoeste 16 Sudoeste 0 1019.7 -0.6 79
2020-03-10 02:00:00 11.2 9 Sudoeste 17 Sudoeste 0 1020.2 -0.9 75
2020-03-10 01:00:00 11.1 9 Sudoeste 19 Sudoeste 0 1020.4 -1.2 76
2020-03-10 00:00:00 11 12 Sudoeste 21 Sudoeste 0 1020.3 -1.5 78
2020-03-09 23:00:00 11 12 Sudoeste 20 Sudoeste 0 1021.1 -0.6 81
2020-03-09 22:00:00 11.2 11 Sudoeste 16 Sudoeste 0 1021.6 0 83
2020-03-09 21:00:00 11.3 8 Sudoeste 15 Sudoeste 0 1021.8 0.5 84
2020-03-09 20:00:00 11.3 11 Sudoeste 18 Oeste 0 1021.7 0.7 83
2020-03-09 19:00:00 11.8 13 Oeste 24 Noroeste 0 1021.6 0.2 82
2020-03-09 18:00:00 12.8 17 Noroeste 35 Noroeste 0 1021.3 -0.2 79
2020-03-09 17:00:00 12.9 25 Noroeste 41 Noroeste 0 1021 -1.1 76
2020-03-09 16:00:00 12.9 27 Noroeste 44 Noroeste 0 1021.4 -0.9 75
2020-03-09 15:00:00 13 30 Noroeste 46 Noroeste 0 1021.5 -1.4 76
2020-03-09 14:00:00 12.8 31 Oeste 48 Oeste 0 1022.1 -0.3 76
2020-03-09 13:00:00 13.1 29 Oeste 43 Oeste 0 1022.3 0.3 75
2020-03-09 12:00:00 12.8 30 Oeste 49 Noroeste 0 1022.9 1.8 74
2020-03-09 11:00:00 12.5 30 Oeste 44 Oeste 0 1022.4 1.9 75
2020-03-09 10:00:00 11.9 30 Oeste 46 Oeste 0 1022 1.7 81
2020-03-09 09:00:00 11.7 31 Oeste 47 Noroeste 0 1021.1 1.2 80
2020-03-09 08:00:00 11.5 31 Noroeste 45 Noroeste 0 1020.5 1.2 80
2020-03-09 07:00:00 11.5 33 Noroeste 51 Noroeste 0 1020.3 0.9 83
2020-03-09 06:00:00 11.6 32 Oeste 53 Noroeste 0 1019.9 0.3 81
2020-03-09 05:00:00 11.3 26 Noroeste 52 Oeste 0 1019.3 -0.1 84
2020-03-09 04:00:00 11.7 33 Noroeste 51 Oeste 0 1019.4 -0.1 81
2020-03-09 03:00:00 11.6 37 Noroeste 54 Oeste 0 1019.6 -0.1 78
2020-03-09 02:00:00 11.5 33 Noroeste 55 Noroeste 0.2 1019.4 0.1 80
2020-03-09 01:00:00 11.7 30 Oeste 49 Oeste 0 1019.5 0.9 86
2020-03-09 00:00:00 11.4 28 Oeste 49 Oeste 0 1019.7 1.2 81
2020-03-08 23:00:00 11.5 30 Noroeste 59 Noroeste 1 1019.3 1.2 85
2020-03-08 22:00:00 12.4 21 Oeste 41 Oeste 0 1018.6 1.2 84
2020-03-08 21:00:00 12.6 29 Oeste 47 Oeste 0 1018.5 1.9 83
2020-03-08 20:00:00 12.6 24 Oeste 40 Oeste 0 1018.1 1.6 82
2020-03-08 19:00:00 12.6 21 Oeste 32 Oeste 0 1017.4 1.2 88
2020-03-08 18:00:00 12.7 22 Oeste 31 Oeste 0 1016.6 1 84
2020-03-08 17:00:00 13.1 18 Oeste 31 Oeste 0 1016.5 1 81
2020-03-08 16:00:00 14 18 Oeste 36 Noroeste 0 1016.2 -0.2 78
2020-03-08 15:00:00 16 19 Noroeste 32 Noroeste 0 1015.6 -0.8 64
2020-03-08 14:00:00 16.8 15 Oeste 28 Oeste 0 1015.5 -1.1 64
2020-03-08 13:00:00 15.3 19 Oeste 27 Oeste 0 1016.4 -0.6 68
2020-03-08 12:00:00 15 9 Sudoeste 19 Sudoeste 0 1016.4 0 61
2020-03-08 11:00:00 13 7 Sudoeste 25 Oeste 0 1016.6 0.6 76
2020-03-08 10:00:00 12.5 11 Sudoeste 22 Sudoeste 0 1017 1 65
2020-03-08 09:00:00 10.9 5 Sudoeste 26 Sur 0 1016.4 0.4 71
2020-03-08 08:00:00 9.8 19 Sur 26 Sur 0 1016 -0.1 72
2020-03-08 07:00:00 9.3 12 Sudoeste 19 Sudoeste 0 1016 -0.3 73
2020-03-08 06:00:00 9 13 Sudoeste 17 Sudoeste 0 1016 -0.8 74
2020-03-08 05:00:00 8.9 10 Sudoeste 19 Sur 0 1016.1 -1.7 75
2020-03-08 04:00:00 8.4 13 Sudoeste 18 Sudoeste 0 1016.3 -1.2 77
2020-03-08 03:00:00 8.6 10 Sudoeste 13 Oeste 0 1016.8 -1.3 82
2020-03-08 02:00:00 8.4 11 Oeste 13 Oeste 0 1017.8 -1.1 81
2020-03-08 01:00:00 8.8 12 Sur 17 Sur 0 1017.5 -2.1 78
2020-03-08 00:00:00 9 14 Sur 20 Sudeste 0 1018.1 -1.8 80
2020-03-07 23:00:00 9.2 14 Sur 18 Sur 0 1018.9 -1.2 83
2020-03-07 22:00:00 10.3 8 Sur 11 Sudeste 0 1019.6 -0.5 86
2020-03-07 21:00:00 11.1 2 Sudeste 5 Sudeste 0 1019.9 0 82
2020-03-07 20:00:00 11.9 2 Sur 2 Sur 0 1020.1 0.1 78
2020-03-07 19:00:00 12.5 2 Noroeste 8 Noroeste 0 1020.1 -0.1 78
2020-03-07 18:00:00 12.7 6 Noroeste 17 Noroeste 0 1019.9 -0.4 76
2020-03-07 17:00:00 13.5 12 Noroeste 24 Noroeste 0 1020 -0.5 70
2020-03-07 16:00:00 14.2 16 Noroeste 27 Noroeste 0 1020.2 -1.1 70
2020-03-07 15:00:00 14.5 19 Oeste 30 Oeste 0 1020.3 -1.3 71
2020-03-07 14:00:00 14 22 Oeste 33 Oeste 0 1020.5 -0.8 72
2020-03-07 13:00:00 13 23 Oeste 40 Oeste 0 1021.3 0.3 77
2020-03-07 12:00:00 11.8 27 Oeste 43 Oeste 0 1021.6 1.2 87
2020-03-07 11:00:00 11.8 27 Oeste 40 Noroeste 1 1021.3 1.7 94
2020-03-07 10:00:00 11.3 22 Oeste 36 Oeste 0.2 1021 1.8 95
2020-03-07 09:00:00 11 27 Oeste 39 Oeste 0 1020.4 1.5 95
2020-03-07 08:00:00 10.9 23 Oeste 39 Oeste 0.2 1019.6 0.7 94
2020-03-07 07:00:00 11.1 18 Oeste 35 Oeste 0 1019.2 0.4 95
2020-03-07 06:00:00 10.7 26 Oeste 41 Noroeste 0 1018.9 -0.3 94
2020-03-07 05:00:00 10.4 23 Oeste 46 Oeste 0.2 1018.9 -0.3 94
2020-03-07 04:00:00 10.6 29 Oeste 48 Noroeste 0 1018.8 -0.2 93
2020-03-07 03:00:00 10.2 32 Oeste 49 Oeste 0 1019.2 0.4 93
2020-03-07 02:00:00 9.8 31 Oeste 53 Oeste 0 1019.2 0.6 91
2020-03-07 01:00:00 10.7 33 Oeste 53 Noroeste 0 1019 0.7 83
2020-03-07 00:00:00 11 39 Noroeste 58 Noroeste 0 1018.8 0.9 76
2020-03-06 23:00:00 10.5 36 Noroeste 72 Norte 0.2 1018.6 1.5 73
2020-03-06 22:00:00 10.6 42 Noroeste 59 Oeste 0 1018.3 1.9 76
2020-03-06 21:00:00 9.7 33 Noroeste 64 Noroeste 0 1017.9 2 83
2020-03-06 20:00:00 10.7 43 Noroeste 67 Noroeste 0 1017.1 2.9 71
2020-03-06 19:00:00 9.8 40 Noroeste 69 Noroeste 0.4 1016.4 2.7 77
2020-03-06 18:00:00 8.6 64 Noroeste 93 Noroeste 0.2 1015.9 3.4 76
2020-03-06 17:00:00 10.2 40 Noroeste 77 Noroeste 0 1014.2 2.4 76
2020-03-06 16:00:00 9.5 46 Noroeste 101 Noroeste 1 1013.7 2 77
2020-03-06 15:00:00 10 56 Noroeste 84 Noroeste 0 1012.5 1.3 71
2020-03-06 14:00:00 10.9 66 Noroeste 88 Noroeste 1 1011.8 1.5 66
2020-03-06 13:00:00 10.1 55 Noroeste 82 Noroeste 0 1011.7 2.4 70
2020-03-06 12:00:00 10.5 52 Noroeste 79 Noroeste 0 1011.2 3.4 74
2020-03-06 11:00:00 10.8 53 Noroeste 79 Noroeste 0 1010.3 3.4 64
2020-03-06 10:00:00 9.8 56 Noroeste 89 Noroeste 0 1009.3 3.6 69
2020-03-06 09:00:00 9.4 54 Noroeste 105 Noroeste 0.8 1007.8 2.5 76
2020-03-06 08:00:00 7.6 56 Noroeste 113 Noroeste 2.6 1006.9 2.4 89
2020-03-06 07:00:00 7.9 54 Oeste 100 Oeste 1.6 1005.7 1.5 86
2020-03-06 06:00:00 8.4 44 Oeste 88 Oeste 3 1005.3 1 89
2020-03-06 05:00:00 8.9 47 Oeste 79 Oeste 1.2 1004.5 -0.6 79
2020-03-06 04:00:00 9.2 44 Oeste 82 Oeste 0.8 1004.2 -0.4 85
2020-03-06 03:00:00 9.1 49 Oeste 75 Oeste 0.2 1004.3 -0.9 82
2020-03-06 02:00:00 9.6 32 Oeste 61 Oeste 1 1005.1 -1.2 81
2020-03-06 01:00:00 9.7 14 Sudoeste 24 Sudoeste 0 1004.6 -2.2 71
2020-03-06 00:00:00 9.9 14 Sudoeste 28 Oeste 0 1005.2 -1.8 74
2020-03-05 23:00:00 10.2 15 Sudoeste 55 Oeste 0 1006.3 -0.9 81
2020-03-05 22:00:00 11.3 35 Oeste 54 Oeste 0 1006.8 0.4 77
2020-03-05 21:00:00 11.2 36 Oeste 54 Oeste 0 1007 0.9 78
2020-03-05 20:00:00 10.6 30 Oeste 60 Oeste 0 1007.2 2 85
2020-03-05 19:00:00 9.7 37 Oeste 72 Oeste 1.2 1006.4 1.9 85
2020-03-05 18:00:00 11.1 37 Noroeste 66 Noroeste 0.2 1006.1 2.1 83
2020-03-05 17:00:00 12.4 46 Noroeste 70 Noroeste 0.2 1005.2 2.5 72
2020-03-05 16:00:00 11.9 41 Noroeste 78 Noroeste 0.2 1004.5 3.6 79
2020-03-05 15:00:00 12.2 45 Oeste 75 Oeste 0.2 1004 4.3 83
2020-03-05 14:00:00 12.3 49 Oeste 92 Oeste 0.2 1002.7 4.4 82
2020-03-05 13:00:00 13 60 Oeste 86 Oeste 0 1000.9 2.2 72
2020-03-05 12:00:00 14.4 49 Oeste 75 Oeste 0 999.7 1.4 66
2020-03-05 11:00:00 13.5 38 Oeste 61 Oeste 0 998.3 -0.7 71
2020-03-05 10:00:00 11.8 24 Oeste 61 Oeste 1 998.7 0.1 91
2020-03-05 09:00:00 11.6 41 Noroeste 67 Noroeste 1.6 998.3 3.4 88
2020-03-05 08:00:00 11.6 33 Oeste 58 Noroeste 3 999 3.7 94
2020-03-05 07:00:00 12 43 Noroeste 82 Oeste 1.8 998.6 1.8 90
2020-03-05 06:00:00 19.1 27 Sudoeste 49 Sudoeste 0 994.9 -3.2 52
2020-03-05 05:00:00 18.7 33 Sudoeste 54 Sur 0 995.3 -4.8 56
2020-03-05 04:00:00 18 27 Sur 55 Sudoeste 0 996.8 -4.9 61
2020-03-05 03:00:00 18.3 30 Sur 48 Sur 0 998.1 -5.1 57
2020-03-05 02:00:00 18.1 27 Sur 40 Sur 0 1000.1 -4.3 58
2020-03-05 01:00:00 16.7 17 Sur 24 Sur 0 1001.7 -3.8 64
2020-03-05 00:00:00 16.1 15 Sur 19 Sur 0 1003.2 -2.9 67
2020-03-04 23:00:00 16.1 15 Sur 22 Sur 0 1004.4 -2.7 69
2020-03-04 22:00:00 15.8 17 Sur 24 Sur 0 1005.5 -2.2 73
2020-03-04 21:00:00 15.5 17 Sur 24 Sur 0 1006.1 -1.5 76
2020-03-04 20:00:00 15.6 15 Sur 20 Sur 0 1007.1 -0.9 77
2020-03-04 19:00:00 16.2 8 Sudoeste 16 Oeste 0 1007.7 -0.8 73
2020-03-04 18:00:00 16.8 11 Oeste 17 Oeste 0 1007.6 -1.4 71
2020-03-04 17:00:00 16.8 8 Oeste 12 Sudoeste 0 1008 -1.4 72
2020-03-04 16:00:00 16.4 5 Oeste 13 Noroeste 0 1008.5 -1.7 72
2020-03-04 15:00:00 17.1 10 Oeste 17 Oeste 0 1009 -1.7 69
2020-03-04 14:00:00 17.5 9 Oeste 16 Oeste 0 1009.4 -1 71
2020-03-04 13:00:00 16.6 11 Oeste 18 Oeste 0 1010.2 0.4 74
2020-03-04 12:00:00 15.9 9 Oeste 17 Oeste 0 1010.7 1.5 79
2020-03-04 11:00:00 16.1 12 Oeste 19 Oeste 0 1010.4 1.7 77
2020-03-04 10:00:00 15.4 9 Sudoeste 19 Oeste 0 1009.8 1.5 80
2020-03-04 09:00:00 15 12 Sudoeste 20 Oeste 0 1009.2 1.2 79
2020-03-04 08:00:00 14.7 15 Oeste 24 Sudoeste 0 1008.7 0.4 80
2020-03-04 07:00:00 14.1 14 Sudoeste 25 Sur 0 1008.3 -0.6 83
2020-03-04 06:00:00 12.6 15 Sudoeste 28 Sur 0 1008 -1.6 93
2020-03-04 05:00:00 11.7 19 Sur 28 Sur 1.8 1008.3 -1.8 96
2020-03-04 04:00:00 11.4 10 Sur 16 Sudoeste 2.4 1008.9 -1.6 93
2020-03-04 03:00:00 11.6 12 Sur 19 Sur 0 1009.6 -1.7 91
2020-03-04 02:00:00 11.6 10 Sur 15 Sur 0 1010.1 -1.4 92
2020-03-04 01:00:00 11.1 9 Sur 20 Sur 0 1010.5 -1.3 95
2020-03-04 00:00:00 10.9 13 Sur 17 Sur 0 1011.3 0 93
2020-03-03 23:00:00 11.1 9 Sur 14 Sur 0 1011.5 0.5 90
2020-03-03 22:00:00 11.2 4 Noroeste 13 Norte 0 1011.8 1.7 87
2020-03-03 21:00:00 11.2 11 Norte 19 Noroeste 0 1011.3 2.4 89
2020-03-03 20:00:00 11.6 14 Norte 30 Noroeste 0 1011 3.6 89
2020-03-03 19:00:00 11.9 19 Noroeste 39 Noroeste 0 1010.1 4.3 82
2020-03-03 18:00:00 12.3 27 Noroeste 49 Noroeste 0 1008.9 5.3 87
2020-03-03 17:00:00 13 35 Noroeste 80 Noroeste 0 1007.4 6 86
2020-03-03 16:00:00 13.9 49 Noroeste 86 Noroeste 0 1005.8 6.2 76
2020-03-03 15:00:00 14.3 65 Noroeste 110 Noroeste 0.4 1003.6 5 76
2020-03-03 14:00:00 14.9 72 Noroeste 104 Noroeste 0.2 1001.4 3.3 76
2020-03-03 13:00:00 15.4 71 Noroeste 108 Noroeste 0 999.6 2.3 76
2020-03-03 12:00:00 15.1 57 Oeste 82 Noroeste 0.2 998.6 1.3 81
2020-03-03 11:00:00 15.1 31 Oeste 46 Oeste 0 998.1 -0.7 69
2020-03-03 10:00:00 13.3 22 Sudoeste 38 Sudoeste 0 997.3 -3.8 68
2020-03-03 09:00:00 10.5 24 Sur 39 Sur 0.2 997.3 -6.4 71
2020-03-03 08:00:00 8.6 13 Sudeste 27 Sudeste 0.2 998.8 -6.5 82
2020-03-03 07:00:00 7.8 18 Sudeste 29 Sur 1 1001.1 -4.6 87
2020-03-03 06:00:00 7.9 13 Sur 23 Sur 2.6 1003.7 -2.5 80
2020-03-03 05:00:00 8.4 10 Sudoeste 41 Sudoeste 0.4 1005.3 -1.6 74
2020-03-03 04:00:00 9.4 17 Sudoeste 32 Oeste 0 1005.7 -2.1 62
2020-03-03 03:00:00 9.3 17 Sudoeste 26 Sur 0 1006.2 -1.9 59
2020-03-03 02:00:00 8.6 16 Sur 25 Sur 0 1006.9 -1.5 64
2020-03-03 01:00:00 8.3 15 Sudoeste 21 Sudoeste 0 1007.8 -0.4 70
2020-03-03 00:00:00 8.5 10 Sudoeste 31 Sudoeste 0 1008.1 0 70
2020-03-02 23:00:00 8.3 15 Oeste 52 Oeste 0 1008.4 0.7 77
2020-03-02 22:00:00 9.2 37 Oeste 66 Oeste 0.4 1008.2 1.8 76
2020-03-02 21:00:00 8.9 37 Oeste 71 Oeste 0 1008.1 2.9 78
2020-03-02 20:00:00 10.1 40 Oeste 73 Oeste 0 1007.7 3.6 76
2020-03-02 19:00:00 9.4 44 Oeste 77 Oeste 0 1006.4 2.7 78
2020-03-02 18:00:00 10.4 45 Noroeste 67 Noroeste 0 1005.2 2.5 68
2020-03-02 17:00:00 10.2 49 Oeste 87 Noroeste 0 1004.1 2.3 68
2020-03-02 16:00:00 10 50 Noroeste 75 Noroeste 0.2 1003.7 2.7 70
2020-03-02 15:00:00 8.7 47 Oeste 83 Oeste 1.6 1002.7 2.6 83
2020-03-02 14:00:00 8.7 48 Oeste 76 Noroeste 8.8 1001.8 3.4 83
2020-03-02 13:00:00 8.9 44 Oeste 63 Oeste 1 1001 3.3 82
2020-03-02 12:00:00 8.4 34 Oeste 68 Oeste 1.6 1000.1 4.5 86
2020-03-02 11:00:00 8.5 32 Oeste 75 Oeste 0.4 998.4 4.8 79
2020-03-02 10:00:00 8.5 34 Oeste 68 Oeste 0.4 997.7 5 85
2020-03-02 09:00:00 9.2 49 Oeste 83 Oeste 0.6 995.6 6.2 85
2020-03-02 08:00:00 9.2 49 Oeste 73 Oeste 1.2 993.6 6.6 84
2020-03-02 07:00:00 8.8 58 Noroeste 104 Noroeste 2 992.7 6.5 90
2020-03-02 06:00:00 10.5 56 Noroeste 95 Noroeste 0.6 989.4 5.8 79
2020-03-02 05:00:00 10.4 40 Oeste 95 Oeste 1.4 987 1.2 90
2020-03-02 04:00:00 10.6 44 Oeste 66 Oeste 6.2 986.2 0.1 93
2020-03-02 03:00:00 11.3 7 Noroeste 21 Norte 1 983.6 -4.9 90
2020-03-02 02:00:00 11.6 20 Norte 27 Noroeste 1.4 985.8 -5.2 88
2020-03-02 01:00:00 12.4 5 Norte 6 Norte 0.6 986.1 -6.8 83
2020-03-02 00:00:00 12.7 4 Oeste 14 Sur 0.4 988.5 -7.2 72
2020-03-01 23:00:00 11.9 13 Sudeste 22 Sudeste 0 991 -6.6 82
2020-03-01 22:00:00 11.8 15 Sudeste 21 Sudeste 0 992.9 -4.3 83
2020-03-01 21:00:00 11.7 15 Sudeste 19 Sur 0 995.7 -2.4 87
2020-03-01 20:00:00 12.1 8 Sudeste 13 Sudeste 0 997.6 -1.5 86
2020-03-01 19:00:00 12.3 11 Sudeste 14 Sudeste 0 997.2 -2.3 84
2020-03-01 18:00:00 12.8 10 Sudeste 17 Sudeste 0 998.1 -1.3 81
2020-03-01 17:00:00 13.9 4 Sur 8 Sur 0 999.1 -1.1 75
2020-03-01 16:00:00 13.4 4 Norte 10 Norte 0 999.5 -1.3 78
2020-03-01 15:00:00 13.9 4 Norte 13 Oeste 0 999.4 -1.2 77
2020-03-01 14:00:00 14.1 10 Oeste 28 Noroeste 0 1000.2 0.4 77
2020-03-01 13:00:00 13.6 19 Noroeste 31 Oeste 0 1000.8 1.7 80
2020-03-01 12:00:00 12.9 24 Oeste 60 Noroeste 0 1000.6 2.3 82
2020-03-01 11:00:00 12.9 41 Noroeste 58 Noroeste 0 999.8 4 80
2020-03-01 10:00:00 14.9 13 Oeste 28 Sudoeste 0 999.1 3 58
2020-03-01 09:00:00 14.3 18 Sudoeste 64 Oeste 0 998.3 1.7 54
2020-03-01 08:00:00 14.4 27 Sudoeste 56 Sur 0 995.8 -2.2 46
2020-03-01 07:00:00 13.2 33 Sur 51 Sur 0 996.1 -3.1 56
2020-03-01 06:00:00 11.9 24 Sur 38 Sur 0 996.6 -4.2 62
2020-03-01 05:00:00 10.3 14 Sudeste 21 Sudeste 0 998 -3.6 82
2020-03-01 04:00:00 10.6 13 Sudeste 17 Sudeste 0 999.2 -3.3 82
2020-03-01 03:00:00 10.6 13 Sudeste 17 Sudeste 0 1000.8 -2.4 83
2020-03-01 02:00:00 10.7 13 Sudeste 19 Sur 0 1001.6 -2 81
2020-03-01 01:00:00 10.7 12 Sur 16 Sur 0 1002.5 -1.6 82
2020-03-01 00:00:00 10.8 10 Sudeste 13 Sudeste 0 1003.2 -0.8 85
2020-02-29 23:00:00 11.4 5 Sudeste 21 Sur 0 1003.6 -0.3 81
2020-02-29 22:00:00 11.5 10 Sur 17 Sur 0 1004.1 0.6 80
2020-02-29 21:00:00 11.6 7 Sudoeste 12 Sur 0 1004 1.2 80
2020-02-29 20:00:00 11.8 6 Sudoeste 11 Sudoeste 0 1003.9 1.2 78
2020-02-29 19:00:00 11.9 7 Sudoeste 19 Noroeste 0 1003.5 1.3 78
2020-02-29 18:00:00 12 12 Oeste 24 Oeste 0 1002.8 1.3 77
2020-02-29 17:00:00 12.1 17 Oeste 38 Noroeste 0 1002.7 1.1 76
2020-02-29 16:00:00 12.3 27 Noroeste 55 Noroeste 0 1002.2 0.9 74
2020-02-29 15:00:00 12.3 40 Noroeste 63 Noroeste 0 1001.5 0.6 73
2020-02-29 14:00:00 13.3 18 Oeste 31 Oeste 0 1001.6 1.5 74
2020-02-29 13:00:00 13.3 16 Oeste 29 Oeste 0 1001.3 1.7 72
2020-02-29 12:00:00 12.8 21 Oeste 38 Oeste 0 1000.9 2.4 73
2020-02-29 11:00:00 12.5 18 Oeste 38 Oeste 0.6 1000.1 2.4 81
2020-02-29 10:00:00 13.1 21 Oeste 36 Noroeste 0.6 999.6 4.4 84
2020-02-29 09:00:00 13.5 9 Sudoeste 16 Sudoeste 0 998.5 4.8 77
2020-02-29 08:00:00 13.6 9 Noroeste 38 Noroeste 0 997.7 3.5 74
2020-02-29 07:00:00 15.9 23 Sur 59 Sur 0 995.2 -0.1 44
2020-02-29 06:00:00 16.2 34 Sur 62 Sur 0 993.7 -2.3 41
2020-02-29 05:00:00 17.2 26 Sur 62 Sur 0 994.2 -2.5 34
2020-02-29 04:00:00 17.7 24 Sudoeste 55 Sur 0 995.3 -2.6 35
2020-02-29 03:00:00 18.2 28 Sur 52 Sur 0 996 -3.9 32
2020-02-29 02:00:00 18.4 32 Sur 53 Sur 0 996.7 -4.5 32
2020-02-29 01:00:00 18.7 28 Sur 48 Sudoeste 0 997.9 -3.8 31
2020-02-29 00:00:00 18.8 29 Sur 44 Sur 0 999.9 -2.7 29